sensor_id;sensor_type;location;lat;lon;timestamp;P1;durP1;ratioP1;P2;durP2;ratioP2
47804;SDS011;33568;45.286;9.900;2023-03-05T00:01:27;53.58;;;38.00;;
47804;SDS011;33568;45.286;9.900;2023-03-05T00:04:00;58.13;;;38.05;;
47804;SDS011;33568;45.286;9.900;2023-03-05T00:06:28;51.75;;;38.72;;
47804;SDS011;33568;45.286;9.900;2023-03-05T00:08:55;48.88;;;36.80;;
47804;SDS011;33568;45.286;9.900;2023-03-05T00:11:23;52.13;;;37.45;;
47804;SDS011;33568;45.286;9.900;2023-03-05T00:13:53;50.15;;;36.80;;
47804;SDS011;33568;45.286;9.900;2023-03-05T00:16:19;50.75;;;38.30;;
47804;SDS011;33568;45.286;9.900;2023-03-05T00:18:46;45.22;;;33.45;;
47804;SDS011;33568;45.286;9.900;2023-03-05T00:21:20;51.92;;;35.88;;
47804;SDS011;33568;45.286;9.900;2023-03-05T00:23:49;51.63;;;36.78;;
47804;SDS011;33568;45.286;9.900;2023-03-05T00:26:20;56.65;;;38.78;;
47804;SDS011;33568;45.286;9.900;2023-03-05T00:28:50;58.60;;;38.65;;
47804;SDS011;33568;45.286;9.900;2023-03-05T00:31:19;53.95;;;38.35;;
47804;SDS011;33568;45.286;9.900;2023-03-05T00:33:51;52.63;;;39.17;;
47804;SDS011;33568;45.286;9.900;2023-03-05T00:36:18;58.50;;;40.05;;
47804;SDS011;33568;45.286;9.900;2023-03-05T00:38:45;58.72;;;41.67;;
47804;SDS011;33568;45.286;9.900;2023-03-05T00:43:37;56.80;;;38.85;;
47804;SDS011;33568;45.286;9.900;2023-03-05T00:46:04;55.75;;;40.08;;
47804;SDS011;33568;45.286;9.900;2023-03-05T00:48:30;60.78;;;40.20;;
47804;SDS011;33568;45.286;9.900;2023-03-05T00:50:56;60.28;;;43.53;;
47804;SDS011;33568;45.286;9.900;2023-03-05T00:53:23;61.75;;;42.05;;
47804;SDS011;33568;45.286;9.900;2023-03-05T00:58:16;76.60;;;44.05;;
47804;SDS011;33568;45.286;9.900;2023-03-05T01:03:09;73.00;;;48.90;;
47804;SDS011;33568;45.286;9.900;2023-03-05T01:05:35;75.90;;;50.65;;
47804;SDS011;33568;45.286;9.900;2023-03-05T01:08:02;69.50;;;50.63;;
47804;SDS011;33568;45.286;9.900;2023-03-05T01:10:28;75.20;;;51.22;;
47804;SDS011;33568;45.286;9.900;2023-03-05T01:15:22;67.32;;;48.33;;
47804;SDS011;33568;45.286;9.900;2023-03-05T01:17:49;71.80;;;48.92;;
47804;SDS011;33568;45.286;9.900;2023-03-05T01:20:16;70.05;;;49.58;;
47804;SDS011;33568;45.286;9.900;2023-03-05T01:22:44;71.93;;;49.40;;
47804;SDS011;33568;45.286;9.900;2023-03-05T01:27:38;65.30;;;48.22;;
47804;SDS011;33568;45.286;9.900;2023-03-05T01:30:05;67.75;;;46.80;;
47804;SDS011;33568;45.286;9.900;2023-03-05T01:32:33;58.55;;;45.13;;
47804;SDS011;33568;45.286;9.900;2023-03-05T01:35:01;66.90;;;46.80;;
47804;SDS011;33568;45.286;9.900;2023-03-05T01:37:28;65.30;;;46.60;;
47804;SDS011;33568;45.286;9.900;2023-03-05T01:39:54;60.60;;;45.97;;
47804;SDS011;33568;45.286;9.900;2023-03-05T01:42:21;63.72;;;49.15;;
47804;SDS011;33568;45.286;9.900;2023-03-05T01:47:24;76.65;;;50.28;;
47804;SDS011;33568;45.286;9.900;2023-03-05T01:49:50;66.78;;;47.45;;
47804;SDS011;33568;45.286;9.900;2023-03-05T01:52:19;77.65;;;49.70;;
47804;SDS011;33568;45.286;9.900;2023-03-05T01:54:52;74.63;;;49.97;;
47804;SDS011;33568;45.286;9.900;2023-03-05T01:57:23;71.70;;;50.13;;
47804;SDS011;33568;45.286;9.900;2023-03-05T01:59:55;75.03;;;50.10;;
47804;SDS011;33568;45.286;9.900;2023-03-05T02:02:26;67.13;;;48.90;;
47804;SDS011;33568;45.286;9.900;2023-03-05T02:07:20;65.20;;;45.53;;
47804;SDS011;33568;45.286;9.900;2023-03-05T02:09:48;64.75;;;48.22;;
47804;SDS011;33568;45.286;9.900;2023-03-05T02:12:14;68.30;;;48.33;;
47804;SDS011;33568;45.286;9.900;2023-03-05T02:14:44;68.93;;;48.75;;
47804;SDS011;33568;45.286;9.900;2023-03-05T02:17:12;82.22;;;50.33;;
47804;SDS011;33568;45.286;9.900;2023-03-05T02:19:49;68.50;;;50.08;;
47804;SDS011;33568;45.286;9.900;2023-03-05T02:22:19;69.30;;;50.47;;
47804;SDS011;33568;45.286;9.900;2023-03-05T02:24:48;67.57;;;47.65;;
47804;SDS011;33568;45.286;9.900;2023-03-05T02:27:15;69.95;;;50.97;;
47804;SDS011;33568;45.286;9.900;2023-03-05T02:29:44;73.32;;;51.00;;
47804;SDS011;33568;45.286;9.900;2023-03-05T02:32:12;71.97;;;51.45;;
47804;SDS011;33568;45.286;9.900;2023-03-05T02:34:39;76.38;;;51.78;;
47804;SDS011;33568;45.286;9.900;2023-03-05T02:37:06;66.05;;;47.42;;
47804;SDS011;33568;45.286;9.900;2023-03-05T02:39:35;65.60;;;46.92;;
47804;SDS011;33568;45.286;9.900;2023-03-05T02:44:28;63.50;;;45.03;;
47804;SDS011;33568;45.286;9.900;2023-03-05T02:46:55;68.68;;;48.42;;
47804;SDS011;33568;45.286;9.900;2023-03-05T02:49:22;67.57;;;46.63;;
47804;SDS011;33568;45.286;9.900;2023-03-05T02:51:48;66.55;;;48.05;;
47804;SDS011;33568;45.286;9.900;2023-03-05T02:54:14;66.53;;;45.85;;
47804;SDS011;33568;45.286;9.900;2023-03-05T02:56:41;58.47;;;44.35;;
47804;SDS011;33568;45.286;9.900;2023-03-05T02:59:08;67.43;;;45.22;;
47804;SDS011;33568;45.286;9.900;2023-03-05T03:01:34;57.42;;;44.25;;
47804;SDS011;33568;45.286;9.900;2023-03-05T03:06:27;59.40;;;43.83;;
47804;SDS011;33568;45.286;9.900;2023-03-05T03:08:53;64.35;;;45.10;;
47804;SDS011;33568;45.286;9.900;2023-03-05T03:11:20;64.07;;;43.63;;
47804;SDS011;33568;45.286;9.900;2023-03-05T03:16:13;56.50;;;42.42;;
47804;SDS011;33568;45.286;9.900;2023-03-05T03:18:40;60.40;;;42.55;;
47804;SDS011;33568;45.286;9.900;2023-03-05T03:21:07;61.03;;;43.15;;
47804;SDS011;33568;45.286;9.900;2023-03-05T03:23:33;68.32;;;44.67;;
47804;SDS011;33568;45.286;9.900;2023-03-05T03:26:00;65.38;;;44.42;;
47804;SDS011;33568;45.286;9.900;2023-03-05T03:28:26;62.53;;;44.45;;
47804;SDS011;33568;45.286;9.900;2023-03-05T03:30:53;58.40;;;41.15;;
47804;SDS011;33568;45.286;9.900;2023-03-05T03:33:19;58.28;;;42.70;;
47804;SDS011;33568;45.286;9.900;2023-03-05T03:35:45;60.90;;;44.80;;
47804;SDS011;33568;45.286;9.900;2023-03-05T03:38:12;68.72;;;45.50;;
47804;SDS011;33568;45.286;9.900;2023-03-05T03:43:06;61.65;;;44.60;;
47804;SDS011;33568;45.286;9.900;2023-03-05T03:45:33;65.90;;;47.75;;
47804;SDS011;33568;45.286;9.900;2023-03-05T03:47:59;65.72;;;44.63;;
47804;SDS011;33568;45.286;9.900;2023-03-05T03:50:26;68.25;;;49.38;;
47804;SDS011;33568;45.286;9.900;2023-03-05T03:52:52;66.28;;;48.03;;
47804;SDS011;33568;45.286;9.900;2023-03-05T03:55:18;68.40;;;49.28;;
47804;SDS011;33568;45.286;9.900;2023-03-05T03:57:45;75.80;;;51.35;;
47804;SDS011;33568;45.286;9.900;2023-03-05T04:00:11;80.45;;;51.67;;
47804;SDS011;33568;45.286;9.900;2023-03-05T04:02:38;80.68;;;50.75;;
47804;SDS011;33568;45.286;9.900;2023-03-05T04:05:05;67.28;;;50.00;;
47804;SDS011;33568;45.286;9.900;2023-03-05T04:07:32;73.70;;;49.30;;
47804;SDS011;33568;45.286;9.900;2023-03-05T04:09:58;73.38;;;51.55;;
47804;SDS011;33568;45.286;9.900;2023-03-05T04:12:24;70.80;;;50.20;;
47804;SDS011;33568;45.286;9.900;2023-03-05T04:14:51;65.90;;;48.58;;
47804;SDS011;33568;45.286;9.900;2023-03-05T04:17:17;67.40;;;45.35;;
47804;SDS011;33568;45.286;9.900;2023-03-05T04:19:44;63.85;;;46.50;;
47804;SDS011;33568;45.286;9.900;2023-03-05T04:22:11;55.67;;;43.92;;
47804;SDS011;33568;45.286;9.900;2023-03-05T04:24:38;68.65;;;44.78;;
47804;SDS011;33568;45.286;9.900;2023-03-05T04:27:05;64.90;;;46.80;;
47804;SDS011;33568;45.286;9.900;2023-03-05T04:29:32;61.97;;;45.10;;
47804;SDS011;33568;45.286;9.900;2023-03-05T04:31:59;69.68;;;47.40;;
47804;SDS011;33568;45.286;9.900;2023-03-05T04:34:26;63.85;;;47.25;;
47804;SDS011;33568;45.286;9.900;2023-03-05T04:36:53;68.72;;;48.10;;
47804;SDS011;33568;45.286;9.900;2023-03-05T04:39:19;57.70;;;43.55;;
47804;SDS011;33568;45.286;9.900;2023-03-05T04:41:46;62.42;;;44.90;;
47804;SDS011;33568;45.286;9.900;2023-03-05T04:44:13;63.67;;;44.33;;
47804;SDS011;33568;45.286;9.900;2023-03-05T04:49:05;65.97;;;44.55;;
47804;SDS011;33568;45.286;9.900;2023-03-05T04:51:32;61.55;;;42.53;;
47804;SDS011;33568;45.286;9.900;2023-03-05T04:53:58;57.47;;;44.03;;
47804;SDS011;33568;45.286;9.900;2023-03-05T04:56:24;67.07;;;43.08;;
47804;SDS011;33568;45.286;9.900;2023-03-05T04:58:51;57.67;;;41.22;;
47804;SDS011;33568;45.286;9.900;2023-03-05T05:01:17;61.28;;;41.00;;
47804;SDS011;33568;45.286;9.900;2023-03-05T05:03:45;55.10;;;39.92;;
47804;SDS011;33568;45.286;9.900;2023-03-05T05:08:37;49.50;;;35.75;;
47804;SDS011;33568;45.286;9.900;2023-03-05T05:11:05;47.28;;;33.83;;
47804;SDS011;33568;45.286;9.900;2023-03-05T05:13:33;45.88;;;34.28;;
47804;SDS011;33568;45.286;9.900;2023-03-05T05:15:59;48.17;;;37.03;;
47804;SDS011;33568;45.286;9.900;2023-03-05T05:18:26;48.70;;;36.17;;
47804;SDS011;33568;45.286;9.900;2023-03-05T05:23:19;58.35;;;38.92;;
47804;SDS011;33568;45.286;9.900;2023-03-05T05:25:45;57.83;;;39.40;;
47804;SDS011;33568;45.286;9.900;2023-03-05T05:28:20;54.58;;;38.92;;
47804;SDS011;33568;45.286;9.900;2023-03-05T05:30:46;52.70;;;37.22;;
47804;SDS011;33568;45.286;9.900;2023-03-05T05:33:12;48.80;;;37.53;;
47804;SDS011;33568;45.286;9.900;2023-03-05T05:35:39;51.83;;;37.45;;
47804;SDS011;33568;45.286;9.900;2023-03-05T05:38:05;58.72;;;42.13;;
47804;SDS011;33568;45.286;9.900;2023-03-05T05:40:31;70.65;;;43.15;;
47804;SDS011;33568;45.286;9.900;2023-03-05T05:42:58;59.42;;;42.42;;
47804;SDS011;33568;45.286;9.900;2023-03-05T05:45:24;73.60;;;50.90;;
47804;SDS011;33568;45.286;9.900;2023-03-05T05:47:50;68.53;;;48.38;;
47804;SDS011;33568;45.286;9.900;2023-03-05T05:50:18;75.47;;;53.00;;
47804;SDS011;33568;45.286;9.900;2023-03-05T05:52:45;69.85;;;52.63;;
47804;SDS011;33568;45.286;9.900;2023-03-05T05:55:11;71.38;;;53.60;;
47804;SDS011;33568;45.286;9.900;2023-03-05T05:57:38;73.70;;;54.58;;
47804;SDS011;33568;45.286;9.900;2023-03-05T06:02:37;79.97;;;52.17;;
47804;SDS011;33568;45.286;9.900;2023-03-05T06:05:04;72.95;;;52.80;;
47804;SDS011;33568;45.286;9.900;2023-03-05T06:07:32;72.10;;;51.80;;
47804;SDS011;33568;45.286;9.900;2023-03-05T06:10:00;73.15;;;53.53;;
47804;SDS011;33568;45.286;9.900;2023-03-05T06:12:27;81.53;;;56.13;;
47804;SDS011;33568;45.286;9.900;2023-03-05T06:17:20;77.25;;;53.90;;
47804;SDS011;33568;45.286;9.900;2023-03-05T06:19:47;77.13;;;55.03;;
47804;SDS011;33568;45.286;9.900;2023-03-05T06:22:13;87.85;;;59.35;;
47804;SDS011;33568;45.286;9.900;2023-03-05T06:24:39;77.55;;;57.63;;
47804;SDS011;33568;45.286;9.900;2023-03-05T06:27:06;78.60;;;55.88;;
47804;SDS011;33568;45.286;9.900;2023-03-05T06:29:32;82.97;;;58.33;;
47804;SDS011;33568;45.286;9.900;2023-03-05T06:31:58;85.25;;;58.70;;
47804;SDS011;33568;45.286;9.900;2023-03-05T06:34:25;74.95;;;56.30;;
47804;SDS011;33568;45.286;9.900;2023-03-05T06:36:51;76.47;;;56.72;;
47804;SDS011;33568;45.286;9.900;2023-03-05T06:39:18;74.30;;;55.28;;
47804;SDS011;33568;45.286;9.900;2023-03-05T06:41:44;88.53;;;61.30;;
47804;SDS011;33568;45.286;9.900;2023-03-05T06:44:10;75.93;;;53.53;;
47804;SDS011;33568;45.286;9.900;2023-03-05T06:46:37;57.75;;;42.65;;
47804;SDS011;33568;45.286;9.900;2023-03-05T06:49:04;50.13;;;38.05;;
47804;SDS011;33568;45.286;9.900;2023-03-05T06:51:36;37.22;;;30.60;;
47804;SDS011;33568;45.286;9.900;2023-03-05T06:54:05;41.03;;;32.95;;
47804;SDS011;33568;45.286;9.900;2023-03-05T06:56:34;37.08;;;31.50;;
47804;SDS011;33568;45.286;9.900;2023-03-05T06:59:01;39.22;;;32.08;;
47804;SDS011;33568;45.286;9.900;2023-03-05T07:01:28;37.80;;;30.67;;
47804;SDS011;33568;45.286;9.900;2023-03-05T07:03:55;39.70;;;34.60;;
47804;SDS011;33568;45.286;9.900;2023-03-05T07:06:24;42.67;;;37.10;;
47804;SDS011;33568;45.286;9.900;2023-03-05T07:08:56;48.28;;;40.85;;
47804;SDS011;33568;45.286;9.900;2023-03-05T07:11:23;57.60;;;44.00;;
47804;SDS011;33568;45.286;9.900;2023-03-05T07:13:50;63.47;;;48.85;;
47804;SDS011;33568;45.286;9.900;2023-03-05T07:16:18;78.40;;;58.40;;
47804;SDS011;33568;45.286;9.900;2023-03-05T07:18:46;85.20;;;62.35;;
47804;SDS011;33568;45.286;9.900;2023-03-05T07:21:18;77.63;;;59.42;;
47804;SDS011;33568;45.286;9.900;2023-03-05T07:23:47;75.95;;;54.90;;
47804;SDS011;33568;45.286;9.900;2023-03-05T07:26:15;74.88;;;54.42;;
47804;SDS011;33568;45.286;9.900;2023-03-05T07:28:41;72.32;;;54.50;;
47804;SDS011;33568;45.286;9.900;2023-03-05T07:31:12;81.15;;;61.38;;
47804;SDS011;33568;45.286;9.900;2023-03-05T07:33:40;79.18;;;58.05;;
47804;SDS011;33568;45.286;9.900;2023-03-05T07:36:07;76.05;;;56.72;;
47804;SDS011;33568;45.286;9.900;2023-03-05T07:38:34;69.25;;;54.58;;
47804;SDS011;33568;45.286;9.900;2023-03-05T07:41:05;70.32;;;54.30;;
47804;SDS011;33568;45.286;9.900;2023-03-05T07:43:33;70.45;;;54.83;;
47804;SDS011;33568;45.286;9.900;2023-03-05T07:46:02;63.40;;;50.10;;
47804;SDS011;33568;45.286;9.900;2023-03-05T07:48:29;68.07;;;52.88;;
47804;SDS011;33568;45.286;9.900;2023-03-05T07:51:02;68.43;;;52.50;;
47804;SDS011;33568;45.286;9.900;2023-03-05T07:53:30;94.15;;;60.38;;
47804;SDS011;33568;45.286;9.900;2023-03-05T07:55:57;71.47;;;54.80;;
47804;SDS011;33568;45.286;9.900;2023-03-05T07:58:23;67.63;;;49.08;;
47804;SDS011;33568;45.286;9.900;2023-03-05T08:00:49;70.63;;;51.35;;
47804;SDS011;33568;45.286;9.900;2023-03-05T08:03:16;67.32;;;52.53;;
47804;SDS011;33568;45.286;9.900;2023-03-05T08:05:44;74.50;;;54.30;;
47804;SDS011;33568;45.286;9.900;2023-03-05T08:08:10;73.20;;;54.88;;
47804;SDS011;33568;45.286;9.900;2023-03-05T08:10:37;70.45;;;52.83;;
47804;SDS011;33568;45.286;9.900;2023-03-05T08:13:04;72.30;;;52.40;;
47804;SDS011;33568;45.286;9.900;2023-03-05T08:15:31;70.60;;;53.60;;
47804;SDS011;33568;45.286;9.900;2023-03-05T08:17:57;72.05;;;53.50;;
47804;SDS011;33568;45.286;9.900;2023-03-05T08:20:24;71.45;;;52.65;;
47804;SDS011;33568;45.286;9.900;2023-03-05T08:22:50;74.97;;;55.10;;
47804;SDS011;33568;45.286;9.900;2023-03-05T08:25:17;73.65;;;54.92;;
47804;SDS011;33568;45.286;9.900;2023-03-05T08:27:44;67.28;;;52.78;;
47804;SDS011;33568;45.286;9.900;2023-03-05T08:30:13;66.07;;;51.75;;
47804;SDS011;33568;45.286;9.900;2023-03-05T08:32:42;72.50;;;53.22;;
47804;SDS011;33568;45.286;9.900;2023-03-05T08:35:08;75.15;;;54.03;;
47804;SDS011;33568;45.286;9.900;2023-03-05T08:37:35;66.18;;;52.92;;
47804;SDS011;33568;45.286;9.900;2023-03-05T08:40:02;68.85;;;54.53;;
47804;SDS011;33568;45.286;9.900;2023-03-05T08:42:29;66.22;;;53.47;;
47804;SDS011;33568;45.286;9.900;2023-03-05T08:44:56;68.78;;;53.90;;
47804;SDS011;33568;45.286;9.900;2023-03-05T08:47:22;70.82;;;54.75;;
47804;SDS011;33568;45.286;9.900;2023-03-05T08:49:51;72.35;;;53.72;;
47804;SDS011;33568;45.286;9.900;2023-03-05T08:52:20;69.30;;;52.13;;
47804;SDS011;33568;45.286;9.900;2023-03-05T08:54:47;77.00;;;57.03;;
47804;SDS011;33568;45.286;9.900;2023-03-05T08:57:14;73.22;;;53.70;;
47804;SDS011;33568;45.286;9.900;2023-03-05T09:02:08;60.88;;;48.97;;
47804;SDS011;33568;45.286;9.900;2023-03-05T09:04:36;65.32;;;49.22;;
47804;SDS011;33568;45.286;9.900;2023-03-05T09:07:03;62.15;;;48.78;;
47804;SDS011;33568;45.286;9.900;2023-03-05T09:11:58;65.35;;;47.38;;
47804;SDS011;33568;45.286;9.900;2023-03-05T09:14:24;62.25;;;47.20;;
47804;SDS011;33568;45.286;9.900;2023-03-05T09:16:53;56.58;;;47.00;;
47804;SDS011;33568;45.286;9.900;2023-03-05T09:19:20;67.18;;;48.22;;
47804;SDS011;33568;45.286;9.900;2023-03-05T09:21:46;58.97;;;45.25;;
47804;SDS011;33568;45.286;9.900;2023-03-05T09:26:39;61.00;;;47.33;;
47804;SDS011;33568;45.286;9.900;2023-03-05T09:29:07;54.45;;;45.00;;
47804;SDS011;33568;45.286;9.900;2023-03-05T09:31:34;59.20;;;45.72;;
47804;SDS011;33568;45.286;9.900;2023-03-05T09:34:01;53.10;;;43.53;;
47804;SDS011;33568;45.286;9.900;2023-03-05T09:36:29;54.95;;;42.70;;
47804;SDS011;33568;45.286;9.900;2023-03-05T09:38:56;61.35;;;42.42;;
47804;SDS011;33568;45.286;9.900;2023-03-05T09:41:26;56.78;;;43.95;;
47804;SDS011;33568;45.286;9.900;2023-03-05T09:47:25;46.97;;;38.47;;
47804;SDS011;33568;45.286;9.900;2023-03-05T09:49:58;48.45;;;38.28;;
47804;SDS011;33568;45.286;9.900;2023-03-05T09:52:37;47.08;;;37.50;;
47804;SDS011;33568;45.286;9.900;2023-03-05T09:55:13;47.08;;;38.03;;
47804;SDS011;33568;45.286;9.900;2023-03-05T09:57:47;48.20;;;38.17;;
47804;SDS011;33568;45.286;9.900;2023-03-05T10:00:32;47.95;;;37.42;;
47804;SDS011;33568;45.286;9.900;2023-03-05T10:03:57;44.45;;;37.13;;
47804;SDS011;33568;45.286;9.900;2023-03-05T10:06:29;52.58;;;39.50;;
47804;SDS011;33568;45.286;9.900;2023-03-05T10:13:51;49.60;;;37.20;;
47804;SDS011;33568;45.286;9.900;2023-03-05T10:28:03;49.25;;;37.05;;
47804;SDS011;33568;45.286;9.900;2023-03-05T10:33:42;41.00;;;33.25;;
47804;SDS011;33568;45.286;9.900;2023-03-05T10:39:28;47.22;;;35.97;;
47804;SDS011;33568;45.286;9.900;2023-03-05T10:44:42;55.90;;;39.33;;
47804;SDS011;33568;45.286;9.900;2023-03-05T10:50:23;43.15;;;32.85;;
47804;SDS011;33568;45.286;9.900;2023-03-05T10:55:43;39.33;;;31.50;;
47804;SDS011;33568;45.286;9.900;2023-03-05T11:00:38;44.00;;;30.92;;
47804;SDS011;33568;45.286;9.900;2023-03-05T11:03:09;37.20;;;29.98;;
47804;SDS011;33568;45.286;9.900;2023-03-05T11:05:39;35.58;;;29.52;;
47804;SDS011;33568;45.286;9.900;2023-03-05T11:13:40;37.20;;;26.20;;
47804;SDS011;33568;45.286;9.900;2023-03-05T11:16:17;35.90;;;27.10;;
47804;SDS011;33568;45.286;9.900;2023-03-05T11:19:14;36.40;;;30.00;;
47804;SDS011;33568;45.286;9.900;2023-03-05T11:24:37;39.00;;;32.03;;
47804;SDS011;33568;45.286;9.900;2023-03-05T11:29:47;40.03;;;31.35;;
47804;SDS011;33568;45.286;9.900;2023-03-05T11:32:24;40.45;;;30.73;;
47804;SDS011;33568;45.286;9.900;2023-03-05T11:34:52;35.97;;;28.63;;
47804;SDS011;33568;45.286;9.900;2023-03-05T11:37:29;35.28;;;27.05;;
47804;SDS011;33568;45.286;9.900;2023-03-05T11:40:04;33.53;;;26.73;;
47804;SDS011;33568;45.286;9.900;2023-03-05T11:42:42;36.85;;;29.02;;
47804;SDS011;33568;45.286;9.900;2023-03-05T11:45:13;32.13;;;26.80;;
47804;SDS011;33568;45.286;9.900;2023-03-05T11:47:49;37.47;;;30.17;;
47804;SDS011;33568;45.286;9.900;2023-03-05T11:52:51;34.45;;;29.13;;
47804;SDS011;33568;45.286;9.900;2023-03-05T11:55:35;33.92;;;29.15;;
47804;SDS011;33568;45.286;9.900;2023-03-05T12:01:15;40.85;;;32.20;;
47804;SDS011;33568;45.286;9.900;2023-03-05T12:03:44;42.60;;;33.15;;
47804;SDS011;33568;45.286;9.900;2023-03-05T12:06:24;37.53;;;33.38;;
47804;SDS011;33568;45.286;9.900;2023-03-05T12:08:56;46.00;;;34.50;;
47804;SDS011;33568;45.286;9.900;2023-03-05T12:11:27;41.42;;;34.95;;
47804;SDS011;33568;45.286;9.900;2023-03-05T12:14:06;42.25;;;34.90;;
47804;SDS011;33568;45.286;9.900;2023-03-05T12:19:26;40.00;;;33.78;;
47804;SDS011;33568;45.286;9.900;2023-03-05T12:21:55;41.15;;;34.28;;
47804;SDS011;33568;45.286;9.900;2023-03-05T12:29:36;40.85;;;33.63;;
47804;SDS011;33568;45.286;9.900;2023-03-05T12:34:47;39.80;;;31.95;;
47804;SDS011;33568;45.286;9.900;2023-03-05T12:39:58;42.63;;;34.20;;
47804;SDS011;33568;45.286;9.900;2023-03-05T12:47:37;39.83;;;33.53;;
47804;SDS011;33568;45.286;9.900;2023-03-05T12:50:04;37.03;;;32.70;;
47804;SDS011;33568;45.286;9.900;2023-03-05T12:52:50;39.15;;;32.85;;
47804;SDS011;33568;45.286;9.900;2023-03-05T12:55:18;42.90;;;33.25;;
47804;SDS011;33568;45.286;9.900;2023-03-05T12:57:49;37.78;;;30.52;;
47804;SDS011;33568;45.286;9.900;2023-03-05T13:00:42;38.03;;;32.28;;
47804;SDS011;33568;45.286;9.900;2023-03-05T13:03:16;42.30;;;33.45;;
47804;SDS011;33568;45.286;9.900;2023-03-05T13:05:53;39.72;;;32.38;;
47804;SDS011;33568;45.286;9.900;2023-03-05T13:08:22;40.88;;;32.25;;
47804;SDS011;33568;45.286;9.900;2023-03-05T13:10:51;35.97;;;31.77;;
47804;SDS011;33568;45.286;9.900;2023-03-05T13:13:21;48.95;;;34.25;;
47804;SDS011;33568;45.286;9.900;2023-03-05T13:15:48;40.92;;;32.95;;
47804;SDS011;33568;45.286;9.900;2023-03-05T13:18:20;40.72;;;33.78;;
47804;SDS011;33568;45.286;9.900;2023-03-05T13:21:05;46.13;;;33.92;;
47804;SDS011;33568;45.286;9.900;2023-03-05T13:23:33;47.15;;;33.28;;
47804;SDS011;33568;45.286;9.900;2023-03-05T13:28:29;40.75;;;32.92;;
47804;SDS011;33568;45.286;9.900;2023-03-05T13:30:57;40.33;;;33.88;;
47804;SDS011;33568;45.286;9.900;2023-03-05T13:33:29;55.13;;;33.95;;
47804;SDS011;33568;45.286;9.900;2023-03-05T13:35:58;50.30;;;34.63;;
47804;SDS011;33568;45.286;9.900;2023-03-05T13:43:48;40.25;;;31.92;;
47804;SDS011;33568;45.286;9.900;2023-03-05T13:46:24;34.72;;;29.38;;
47804;SDS011;33568;45.286;9.900;2023-03-05T13:48:50;39.30;;;30.23;;
47804;SDS011;33568;45.286;9.900;2023-03-05T13:53:43;37.13;;;27.20;;
47804;SDS011;33568;45.286;9.900;2023-03-05T13:56:15;37.30;;;28.05;;
47804;SDS011;33568;45.286;9.900;2023-03-05T13:58:44;48.72;;;27.90;;
47804;SDS011;33568;45.286;9.900;2023-03-05T14:01:29;33.35;;;26.52;;
47804;SDS011;33568;45.286;9.900;2023-03-05T14:04:29;38.22;;;28.05;;
47804;SDS011;33568;45.286;9.900;2023-03-05T14:10:19;37.95;;;28.40;;
47804;SDS011;33568;45.286;9.900;2023-03-05T14:12:49;36.67;;;30.67;;
47804;SDS011;33568;45.286;9.900;2023-03-05T14:17:46;36.10;;;28.95;;
47804;SDS011;33568;45.286;9.900;2023-03-05T14:22:49;36.33;;;26.20;;
47804;SDS011;33568;45.286;9.900;2023-03-05T14:25:37;34.20;;;26.02;;
47804;SDS011;33568;45.286;9.900;2023-03-05T14:28:26;35.63;;;25.45;;
47804;SDS011;33568;45.286;9.900;2023-03-05T14:30:53;37.92;;;27.80;;
47804;SDS011;33568;45.286;9.900;2023-03-05T14:33:26;37.15;;;30.10;;
47804;SDS011;33568;45.286;9.900;2023-03-05T14:35:55;38.05;;;27.27;;
47804;SDS011;33568;45.286;9.900;2023-03-05T14:38:23;35.80;;;26.40;;
47804;SDS011;33568;45.286;9.900;2023-03-05T14:41:17;34.75;;;26.75;;
47804;SDS011;33568;45.286;9.900;2023-03-05T14:43:52;38.08;;;29.08;;
47804;SDS011;33568;45.286;9.900;2023-03-05T14:46:20;38.30;;;29.58;;
47804;SDS011;33568;45.286;9.900;2023-03-05T14:51:13;40.97;;;28.70;;
47804;SDS011;33568;45.286;9.900;2023-03-05T14:56:15;39.92;;;29.33;;
47804;SDS011;33568;45.286;9.900;2023-03-05T14:58:44;35.38;;;27.52;;
47804;SDS011;33568;45.286;9.900;2023-03-05T15:01:11;39.20;;;27.45;;
47804;SDS011;33568;45.286;9.900;2023-03-05T15:03:37;38.25;;;27.92;;
47804;SDS011;33568;45.286;9.900;2023-03-05T15:06:07;35.92;;;28.02;;
47804;SDS011;33568;45.286;9.900;2023-03-05T15:08:42;46.00;;;33.25;;
47804;SDS011;33568;45.286;9.900;2023-03-05T15:13:36;31.23;;;23.27;;
47804;SDS011;33568;45.286;9.900;2023-03-05T15:18:30;35.67;;;25.63;;
47804;SDS011;33568;45.286;9.900;2023-03-05T15:23:22;35.03;;;25.52;;
47804;SDS011;33568;45.286;9.900;2023-03-05T15:28:15;37.25;;;27.90;;
47804;SDS011;33568;45.286;9.900;2023-03-05T15:30:43;41.33;;;27.20;;
47804;SDS011;33568;45.286;9.900;2023-03-05T15:33:12;37.63;;;26.77;;
47804;SDS011;33568;45.286;9.900;2023-03-05T15:35:40;39.38;;;27.95;;
47804;SDS011;33568;45.286;9.900;2023-03-05T15:38:06;32.47;;;26.05;;
47804;SDS011;33568;45.286;9.900;2023-03-05T15:42:59;37.78;;;27.90;;
47804;SDS011;33568;45.286;9.900;2023-03-05T15:45:26;36.25;;;27.58;;
47804;SDS011;33568;45.286;9.900;2023-03-05T15:47:56;39.33;;;29.38;;
47804;SDS011;33568;45.286;9.900;2023-03-05T15:50:22;42.35;;;28.45;;
47804;SDS011;33568;45.286;9.900;2023-03-05T15:55:15;40.20;;;28.85;;
47804;SDS011;33568;45.286;9.900;2023-03-05T15:57:44;33.92;;;27.70;;
47804;SDS011;33568;45.286;9.900;2023-03-05T16:00:12;39.05;;;28.15;;
47804;SDS011;33568;45.286;9.900;2023-03-05T16:02:41;40.95;;;29.48;;
47804;SDS011;33568;45.286;9.900;2023-03-05T16:07:34;45.63;;;28.70;;
47804;SDS011;33568;45.286;9.900;2023-03-05T16:10:03;40.17;;;30.17;;
47804;SDS011;33568;45.286;9.900;2023-03-05T16:12:32;36.00;;;27.50;;
47804;SDS011;33568;45.286;9.900;2023-03-05T16:15:06;43.83;;;31.30;;
47804;SDS011;33568;45.286;9.900;2023-03-05T16:17:34;40.03;;;29.73;;
47804;SDS011;33568;45.286;9.900;2023-03-05T16:20:01;50.53;;;32.22;;
47804;SDS011;33568;45.286;9.900;2023-03-05T16:22:29;46.47;;;30.65;;
47804;SDS011;33568;45.286;9.900;2023-03-05T16:27:22;42.15;;;31.58;;
47804;SDS011;33568;45.286;9.900;2023-03-05T16:29:49;40.10;;;30.30;;
47804;SDS011;33568;45.286;9.900;2023-03-05T16:32:15;48.17;;;32.50;;
47804;SDS011;33568;45.286;9.900;2023-03-05T16:34:42;39.63;;;30.85;;
47804;SDS011;33568;45.286;9.900;2023-03-05T16:39:35;41.50;;;32.33;;
47804;SDS011;33568;45.286;9.900;2023-03-05T16:44:29;46.65;;;29.17;;
47804;SDS011;33568;45.286;9.900;2023-03-05T16:49:22;42.45;;;30.08;;
47804;SDS011;33568;45.286;9.900;2023-03-05T16:51:48;44.55;;;29.98;;
47804;SDS011;33568;45.286;9.900;2023-03-05T16:54:15;41.97;;;31.90;;
47804;SDS011;33568;45.286;9.900;2023-03-05T16:59:07;89.00;;;65.65;;
47804;SDS011;33568;45.286;9.900;2023-03-05T17:04:00;77.15;;;58.22;;
47804;SDS011;33568;45.286;9.900;2023-03-05T17:08:54;49.03;;;36.42;;
47804;SDS011;33568;45.286;9.900;2023-03-05T17:11:21;43.80;;;32.13;;
47804;SDS011;33568;45.286;9.900;2023-03-05T17:13:47;43.65;;;31.33;;
47804;SDS011;33568;45.286;9.900;2023-03-05T17:16:14;40.83;;;30.00;;
47804;SDS011;33568;45.286;9.900;2023-03-05T17:18:42;38.53;;;31.20;;
47804;SDS011;33568;45.286;9.900;2023-03-05T17:23:35;40.72;;;29.08;;
47804;SDS011;33568;45.286;9.900;2023-03-05T17:26:06;46.00;;;32.33;;
47804;SDS011;33568;45.286;9.900;2023-03-05T17:28:37;50.97;;;33.80;;
47804;SDS011;33568;45.286;9.900;2023-03-05T17:33:30;69.38;;;42.03;;